Log Lane Village, CO

4:37 PM MDT on July 28, 2016 (GMT -0600)
Fort Morgan | | Change Station

Elev 4334 ft 40.26 °N, 103.80 °W | Updated 9 seconds ago

Clear
Clear
77.0 °F
Feels Like 79 °F
N
0.0
Wind Variable Wind from North
Gusts 7.0 mph

Today
High -- | Low -- °F
--% Chance of Precip.
Yesterday
High -- | Low -- °F
Precip. -- in
Pressure 30.16 in
Visibility 10.0 miles
Clouds Clear
Heat Index 79 °F
Dew Point 60 °F
Humidity 56%
Rainfall 0.00 in
Snow Depth Not available.
5:49 AM 8:13 PM
Waning Crescent, 28% visible
METAR KFMM 282215Z AUTO 06006KT 10SM CLR 25/14 A3016 RMK AO2 T02520140
Pressure 30.16 in
Visibility 10.0 miles
Clouds Clear
Heat Index 79 °F
Dew Point 60 °F
Humidity 56%
Rainfall 0.00 in
Snow Depth Not available.
5:49 AM 8:13 PM
Waning Crescent, 28% visible
METAR KFMM 282215Z AUTO 06006KT 10SM CLR 25/14 A3016 RMK AO2 T02520140

10-Day Weather Forecast

Almanac

Astronomy

Jul. 28, 2016 Rise Set
Actual Time
Civil Twilight
Nautical Twilight
Astronomical Twilight
Moon
Length of Visible Light
Length of Day
Tomorrow will be .
, % of the Moon is Illuminated

Today's Extremes

State Highs State Lows

Community

WunderPhotos

Upload Photos

1,928,220 photos uploaded!

WunderBlog® & News

Nearby

Air Quality

  Air Quality AQ Index Pollutant
Not available.

Snow Depth

Station Depth Elevation

Earthquake Activity

City Distance Mag. Time & Date
Minimum magnitude displayed is 2.5.

Coastal Water Temperatures

Place Temperature

Stations

Nearby Weather Stations

Station Location Temp. Windchill Dew Point Humidity Wind Precip. Elev Updated Type
                   

Watches & Warnings

There are currently no watches in effect.